JST986 YSSY-YPPH
Flight info
| Callsign | JST986 |
|---|---|
| Flight time | 4h 27m |
| Altitude | 34000 |
| Route | KADOM H44 AD Q33 ESP Q158 KABLI |
| Aircraft | A21N/M-SDE3FGHIJ3J5M1RWYZ/LB1 |
Departure
| Time | 2026-04-20 02:35 |
|---|---|
| Airport | Sydney Kingsford Smith International Airport (YSSY) |
Arrival
| Time | 2026-04-20 07:02 |
|---|---|
| Airport | Perth International Airport (YPPH) |
| Time | Latitude | Longitude | Altitude | Speed | Heading |
|---|---|---|---|---|---|
| 2026-04-20 01:36 | -33.93514 | 151.17690 | 35 ft | 0 kts | 101° |
| 2026-04-20 02:26 | -33.93513 | 151.17688 | 62 ft | 2 kts | 101° |
| 2026-04-20 02:27 | -33.93501 | 151.17650 | 35 ft | 4 kts | 121° |
| 2026-04-20 02:27 | -33.93492 | 151.17632 | 35 ft | 4 kts | 109° |
| 2026-04-20 02:27 | -33.93491 | 151.17606 | 35 ft | 4 kts | 53° |
| 2026-04-20 02:27 | -33.93510 | 151.17593 | 35 ft | 4 kts | 357° |
| 2026-04-20 02:28 | -33.93518 | 151.17594 | 35 ft | 0 kts | 348° |
| 2026-04-20 02:32 | -33.93512 | 151.17593 | 35 ft | 2 kts | 348° |
| 2026-04-20 02:32 | -33.93491 | 151.17588 | 35 ft | 4 kts | 348° |
| 2026-04-20 02:32 | -33.93459 | 151.17542 | 35 ft | 12 kts | 297° |
| 2026-04-20 02:32 | -33.93381 | 151.17503 | 35 ft | 14 kts | 352° |
| 2026-04-20 02:33 | -33.93282 | 151.17477 | 35 ft | 15 kts | 347° |
| 2026-04-20 02:33 | -33.93180 | 151.17450 | 35 ft | 15 kts | 348° |
| 2026-04-20 02:33 | -33.93074 | 151.17426 | 36 ft | 16 kts | 348° |
| 2026-04-20 02:33 | -33.92974 | 151.17386 | 36 ft | 11 kts | 307° |
| 2026-04-20 02:34 | -33.92964 | 151.17349 | 36 ft | 1 kts | 286° |
| 2026-04-20 02:34 | -33.92952 | 151.17284 | 36 ft | 10 kts | 282° |
| 2026-04-20 02:34 | -33.92978 | 151.17204 | 36 ft | 11 kts | 220° |
| 2026-04-20 02:34 | -33.93061 | 151.17192 | 36 ft | 20 kts | 167° |
| 2026-04-20 02:35 | -33.93438 | 151.17289 | 33 ft | 89 kts | 167° |
| 2026-04-20 02:35 | -33.94230 | 151.17494 | 35 ft | 144 kts | 167° |
| 2026-04-20 02:35 | -33.95315 | 151.17780 | 265 ft | 166 kts | 170° |
| 2026-04-20 02:35 | -33.96451 | 151.18069 | 962 ft | 168 kts | 169° |
| 2026-04-20 02:36 | -33.97667 | 151.18071 | 1428 ft | 186 kts | 187° |
| 2026-04-20 02:36 | -33.99017 | 151.17890 | 1783 ft | 207 kts | 185° |
| 2026-04-20 02:36 | -34.00543 | 151.17725 | 2114 ft | 231 kts | 185° |
| 2026-04-20 02:36 | -34.02193 | 151.17576 | 2680 ft | 242 kts | 181° |
| 2026-04-20 02:37 | -34.03862 | 151.17833 | 3518 ft | 240 kts | 167° |
| 2026-04-20 02:37 | -34.05473 | 151.18371 | 4265 ft | 242 kts | 165° |
| 2026-04-20 02:37 | -34.07119 | 151.18939 | 4697 ft | 249 kts | 165° |
| 2026-04-20 02:37 | -34.08769 | 151.19503 | 4897 ft | 251 kts | 166° |
| 2026-04-20 02:38 | -34.10447 | 151.20072 | 4959 ft | 250 kts | 165° |
| 2026-04-20 02:38 | -34.12136 | 151.20641 | 5442 ft | 255 kts | 166° |
| 2026-04-20 02:38 | -34.13853 | 151.21217 | 6166 ft | 257 kts | 166° |
| 2026-04-20 02:38 | -34.15577 | 151.21793 | 6952 ft | 258 kts | 166° |
| 2026-04-20 02:39 | -34.17314 | 151.22371 | 7607 ft | 261 kts | 167° |
| 2026-04-20 02:39 | -34.19121 | 151.22620 | 8271 ft | 262 kts | 186° |
| 2026-04-20 02:39 | -34.20872 | 151.22011 | 8965 ft | 266 kts | 208° |
| 2026-04-20 02:39 | -34.22306 | 151.20575 | 9623 ft | 273 kts | 226° |
| 2026-04-20 02:40 | -34.23543 | 151.18794 | 10228 ft | 282 kts | 228° |
| 2026-04-20 02:40 | -34.24756 | 151.16837 | 10543 ft | 301 kts | 237° |
| 2026-04-20 02:40 | -34.25493 | 151.14411 | 11025 ft | 316 kts | 258° |
| 2026-04-20 02:40 | -34.25408 | 151.11771 | 11726 ft | 323 kts | 278° |
| 2026-04-20 02:41 | -34.24833 | 151.09129 | 12459 ft | 327 kts | 284° |
| 2026-04-20 02:41 | -34.23936 | 151.06581 | 13116 ft | 335 kts | 300° |
| 2026-04-20 02:41 | -34.22297 | 151.04535 | 13740 ft | 345 kts | 324° |
| 2026-04-20 02:41 | -34.20086 | 151.03358 | 14321 ft | 353 kts | 347° |
| 2026-04-20 02:42 | -34.17646 | 151.02910 | 14933 ft | 355 kts | 352° |
| 2026-04-20 02:42 | -34.15176 | 151.02535 | 15500 ft | 359 kts | 351° |
| 2026-04-20 02:42 | -34.12729 | 151.02090 | 16089 ft | 361 kts | 349° |
| 2026-04-20 02:42 | -34.10261 | 151.01457 | 16676 ft | 363 kts | 344° |
| 2026-04-20 02:43 | -34.07804 | 151.00674 | 17272 ft | 366 kts | 343° |
| 2026-04-20 02:43 | -34.05336 | 150.99859 | 17868 ft | 369 kts | 343° |
| 2026-04-20 02:43 | -34.02854 | 150.99034 | 18443 ft | 372 kts | 343° |
| 2026-04-20 02:43 | -34.00401 | 150.98035 | 18933 ft | 373 kts | 331° |
| 2026-04-20 02:44 | -33.98291 | 150.96244 | 19339 ft | 372 kts | 311° |
| 2026-04-20 02:44 | -33.96774 | 150.93725 | 19589 ft | 375 kts | 293° |
| 2026-04-20 02:44 | -33.95676 | 150.90834 | 19795 ft | 385 kts | 290° |
| 2026-04-20 02:44 | -33.94590 | 150.87835 | 20003 ft | 395 kts | 290° |
| 2026-04-20 02:45 | -33.93441 | 150.84810 | 20372 ft | 400 kts | 291° |
| 2026-04-20 02:45 | -33.92260 | 150.81810 | 20788 ft | 403 kts | 292° |
| 2026-04-20 02:45 | -33.91029 | 150.78746 | 21231 ft | 406 kts | 292° |
| 2026-04-20 02:45 | -33.89784 | 150.75672 | 21656 ft | 410 kts | 292° |
| 2026-04-20 02:46 | -33.88526 | 150.72580 | 22088 ft | 413 kts | 292° |
| 2026-04-20 02:46 | -33.87260 | 150.69469 | 22515 ft | 415 kts | 292° |
| 2026-04-20 02:46 | -33.85981 | 150.66328 | 22929 ft | 419 kts | 292° |
| 2026-04-20 02:46 | -33.84693 | 150.63165 | 23351 ft | 422 kts | 292° |
| 2026-04-20 02:47 | -33.83398 | 150.59984 | 23763 ft | 425 kts | 292° |
| 2026-04-20 02:47 | -33.82112 | 150.56830 | 24112 ft | 428 kts | 292° |
| 2026-04-20 02:47 | -33.80798 | 150.53603 | 24457 ft | 430 kts | 291° |
| 2026-04-20 02:47 | -33.79482 | 150.50349 | 24799 ft | 433 kts | 291° |
| 2026-04-20 02:48 | -33.78155 | 150.47085 | 25118 ft | 435 kts | 291° |
| 2026-04-20 02:48 | -33.76813 | 150.43801 | 25449 ft | 438 kts | 291° |
| 2026-04-20 02:48 | -33.75458 | 150.40500 | 25775 ft | 440 kts | 291° |
| 2026-04-20 02:48 | -33.74103 | 150.37194 | 26083 ft | 443 kts | 291° |
| 2026-04-20 02:49 | -33.72745 | 150.33854 | 26410 ft | 444 kts | 290° |
| 2026-04-20 02:49 | -33.71720 | 150.30374 | 26701 ft | 439 kts | 277° |
| 2026-04-20 02:49 | -33.71375 | 150.26774 | 27003 ft | 431 kts | 264° |
| 2026-04-20 02:49 | -33.71562 | 150.23238 | 27291 ft | 429 kts | 258° |
| 2026-04-20 02:50 | -33.71923 | 150.19675 | 27585 ft | 430 kts | 257° |
| 2026-04-20 02:50 | -33.72291 | 150.16092 | 27879 ft | 432 kts | 258° |
| 2026-04-20 02:50 | -33.72635 | 150.12502 | 28164 ft | 434 kts | 258° |
| 2026-04-20 02:50 | -33.72960 | 150.08889 | 28454 ft | 435 kts | 258° |
| 2026-04-20 02:51 | -33.73276 | 150.05264 | 28717 ft | 437 kts | 258° |
| 2026-04-20 02:51 | -33.73590 | 150.01613 | 28971 ft | 440 kts | 258° |
| 2026-04-20 02:51 | -33.73904 | 149.97950 | 29228 ft | 442 kts | 258° |
| 2026-04-20 02:51 | -33.74218 | 149.94266 | 29506 ft | 443 kts | 258° |
| 2026-04-20 02:52 | -33.74531 | 149.90573 | 29764 ft | 445 kts | 258° |
| 2026-04-20 02:52 | -33.74845 | 149.86860 | 30011 ft | 447 kts | 258° |
| 2026-04-20 02:52 | -33.75160 | 149.83132 | 30252 ft | 449 kts | 258° |
| 2026-04-20 02:52 | -33.75476 | 149.79395 | 30455 ft | 451 kts | 258° |
| 2026-04-20 02:53 | -33.75790 | 149.75646 | 30659 ft | 452 kts | 258° |
| 2026-04-20 02:53 | -33.76103 | 149.71886 | 30923 ft | 451 kts | 258° |
| 2026-04-20 02:53 | -33.76407 | 149.68185 | 31177 ft | 451 kts | 258° |
| 2026-04-20 02:53 | -33.76716 | 149.64433 | 31418 ft | 450 kts | 258° |
| 2026-04-20 02:54 | -33.77021 | 149.60692 | 31677 ft | 450 kts | 258° |
| 2026-04-20 02:54 | -33.77325 | 149.56949 | 31932 ft | 449 kts | 258° |
| 2026-04-20 02:54 | -33.77628 | 149.53214 | 32141 ft | 449 kts | 258° |
| 2026-04-20 02:54 | -33.77932 | 149.49475 | 32382 ft | 448 kts | 258° |
| 2026-04-20 02:55 | -33.78235 | 149.45746 | 32618 ft | 448 kts | 258° |
| 2026-04-20 02:55 | -33.78538 | 149.42009 | 32841 ft | 447 kts | 258° |
| 2026-04-20 02:55 | -33.78838 | 149.38294 | 33036 ft | 447 kts | 258° |
| 2026-04-20 02:55 | -33.79139 | 149.34565 | 33241 ft | 447 kts | 258° |
| 2026-04-20 02:56 | -33.79436 | 149.30853 | 33441 ft | 446 kts | 258° |
| 2026-04-20 02:56 | -33.79735 | 149.27185 | 33632 ft | 446 kts | 258° |
| 2026-04-20 02:56 | -33.80038 | 149.23479 | 33816 ft | 446 kts | 258° |
| 2026-04-20 02:56 | -33.80337 | 149.19769 | 33985 ft | 445 kts | 258° |
| 2026-04-20 02:57 | -33.80637 | 149.16065 | 34160 ft | 445 kts | 258° |
| 2026-04-20 02:57 | -33.80930 | 149.12356 | 34285 ft | 445 kts | 258° |
| 2026-04-20 02:57 | -33.81219 | 149.08639 | 34290 ft | 445 kts | 258° |
| 2026-04-20 02:58 | -33.81782 | 149.01231 | 34268 ft | 444 kts | 258° |
| 2026-04-20 02:58 | -33.82360 | 148.93828 | 34263 ft | 444 kts | 258° |
| 2026-04-20 02:59 | -33.82923 | 148.86470 | 34263 ft | 445 kts | 258° |
| 2026-04-20 02:59 | -33.83488 | 148.79061 | 34265 ft | 445 kts | 259° |
| 2026-04-20 03:00 | -33.84044 | 148.71648 | 34264 ft | 445 kts | 259° |
| 2026-04-20 03:00 | -33.84697 | 148.64259 | 34267 ft | 442 kts | 254° |
| 2026-04-20 03:01 | -33.85898 | 148.57020 | 34269 ft | 440 kts | 253° |
| 2026-04-20 03:01 | -33.87104 | 148.49795 | 34266 ft | 440 kts | 253° |
| 2026-04-20 03:02 | -33.88303 | 148.42598 | 34271 ft | 441 kts | 253° |
| 2026-04-20 03:02 | -33.89499 | 148.35364 | 34270 ft | 441 kts | 253° |
| 2026-04-20 03:03 | -33.90697 | 148.28074 | 34272 ft | 443 kts | 253° |
| 2026-04-20 03:03 | -33.91877 | 148.20870 | 34269 ft | 441 kts | 253° |
| 2026-04-20 03:04 | -33.93062 | 148.13616 | 34269 ft | 441 kts | 253° |
| 2026-04-20 03:04 | -33.94243 | 148.06358 | 34265 ft | 443 kts | 253° |
| 2026-04-20 03:05 | -33.95424 | 147.99096 | 34268 ft | 441 kts | 253° |
| 2026-04-20 03:05 | -33.96596 | 147.91844 | 34269 ft | 441 kts | 253° |
| 2026-04-20 03:06 | -33.97757 | 147.84622 | 34270 ft | 441 kts | 253° |
| 2026-04-20 03:06 | -33.98922 | 147.77348 | 34270 ft | 441 kts | 253° |
| 2026-04-20 03:07 | -34.00082 | 147.70076 | 34270 ft | 441 kts | 253° |
| 2026-04-20 03:07 | -34.01236 | 147.62858 | 34272 ft | 441 kts | 253° |
| 2026-04-20 03:08 | -34.02387 | 147.55586 | 34271 ft | 441 kts | 253° |
| 2026-04-20 03:08 | -34.03531 | 147.48312 | 34274 ft | 442 kts | 254° |
| 2026-04-20 03:09 | -34.04668 | 147.41026 | 34278 ft | 442 kts | 254° |
| 2026-04-20 03:09 | -34.05809 | 147.33746 | 34273 ft | 442 kts | 254° |
| 2026-04-20 03:10 | -34.06939 | 147.26454 | 34278 ft | 442 kts | 254° |
| 2026-04-20 03:10 | -34.08073 | 147.19141 | 34274 ft | 443 kts | 254° |
| 2026-04-20 03:11 | -34.09202 | 147.11892 | 34279 ft | 443 kts | 253° |
| 2026-04-20 03:11 | -34.10340 | 147.04583 | 34283 ft | 443 kts | 253° |
| 2026-04-20 03:12 | -34.11464 | 146.97271 | 34280 ft | 444 kts | 254° |
| 2026-04-20 03:12 | -34.12394 | 146.91169 | 34286 ft | 444 kts | 254° |
| 2026-04-20 03:13 | -34.13508 | 146.83834 | 34279 ft | 444 kts | 254° |
| 2026-04-20 03:13 | -34.14616 | 146.76484 | 34278 ft | 444 kts | 254° |
| 2026-04-20 03:14 | -34.15723 | 146.69141 | 34278 ft | 444 kts | 254° |
| 2026-04-20 03:14 | -34.16835 | 146.61783 | 34281 ft | 445 kts | 254° |
| 2026-04-20 03:15 | -34.17933 | 146.54423 | 34280 ft | 445 kts | 254° |
| 2026-04-20 03:15 | -34.19023 | 146.47102 | 34282 ft | 445 kts | 254° |
| 2026-04-20 03:16 | -34.20111 | 146.39732 | 34281 ft | 445 kts | 254° |
| 2026-04-20 03:16 | -34.21201 | 146.32361 | 34278 ft | 445 kts | 254° |
| 2026-04-20 03:17 | -34.22288 | 146.24993 | 34281 ft | 446 kts | 254° |
| 2026-04-20 03:17 | -34.23358 | 146.17610 | 34282 ft | 446 kts | 254° |
| 2026-04-20 03:18 | -34.24436 | 146.10232 | 34281 ft | 446 kts | 254° |
| 2026-04-20 03:18 | -34.25447 | 146.02862 | 34281 ft | 447 kts | 255° |
| 2026-04-20 03:19 | -34.26356 | 145.95426 | 34282 ft | 448 kts | 256° |
| 2026-04-20 03:19 | -34.27266 | 145.87974 | 34283 ft | 447 kts | 256° |
| 2026-04-20 03:20 | -34.28177 | 145.80534 | 34282 ft | 447 kts | 256° |
| 2026-04-20 03:20 | -34.29086 | 145.73083 | 34278 ft | 447 kts | 256° |
| 2026-04-20 03:21 | -34.29994 | 145.65634 | 34282 ft | 447 kts | 256° |
| 2026-04-20 03:21 | -34.30893 | 145.58182 | 34285 ft | 447 kts | 256° |
| 2026-04-20 03:22 | -34.31785 | 145.50780 | 34288 ft | 447 kts | 256° |
| 2026-04-20 03:22 | -34.32674 | 145.43328 | 34289 ft | 448 kts | 256° |
| 2026-04-20 03:23 | -34.33568 | 145.35867 | 34289 ft | 448 kts | 256° |
| 2026-04-20 03:23 | -34.34446 | 145.28402 | 34286 ft | 448 kts | 256° |
| 2026-04-20 03:24 | -34.35324 | 145.20950 | 34287 ft | 447 kts | 256° |
| 2026-04-20 03:24 | -34.36196 | 145.13489 | 34290 ft | 448 kts | 256° |
| 2026-04-20 03:25 | -34.37061 | 145.06083 | 34290 ft | 447 kts | 256° |
| 2026-04-20 03:25 | -34.37923 | 144.98631 | 34289 ft | 447 kts | 257° |
| 2026-04-20 03:26 | -34.38780 | 144.91184 | 34290 ft | 447 kts | 257° |
| 2026-04-20 03:26 | -34.39634 | 144.83725 | 34286 ft | 447 kts | 257° |
| 2026-04-20 03:27 | -34.40485 | 144.76280 | 34289 ft | 446 kts | 257° |
| 2026-04-20 03:27 | -34.41327 | 144.68828 | 34286 ft | 446 kts | 257° |
| 2026-04-20 03:28 | -34.42163 | 144.61421 | 34289 ft | 446 kts | 257° |
| 2026-04-20 03:28 | -34.43413 | 144.50248 | 34290 ft | 446 kts | 257° |
| 2026-04-20 03:29 | -34.44240 | 144.42802 | 34290 ft | 446 kts | 257° |
| 2026-04-20 03:29 | -34.45067 | 144.35347 | 34286 ft | 446 kts | 257° |
| 2026-04-20 03:30 | -34.45886 | 144.27883 | 34293 ft | 446 kts | 257° |
| 2026-04-20 03:30 | -34.46698 | 144.20466 | 34291 ft | 446 kts | 257° |
| 2026-04-20 03:31 | -34.47511 | 144.13008 | 34290 ft | 446 kts | 257° |
| 2026-04-20 03:31 | -34.48324 | 144.05546 | 34288 ft | 446 kts | 257° |
| 2026-04-20 03:32 | -34.49126 | 143.98084 | 34287 ft | 447 kts | 258° |
| 2026-04-20 03:32 | -34.49919 | 143.90613 | 34288 ft | 446 kts | 258° |
| 2026-04-20 03:33 | -34.50714 | 143.83136 | 34286 ft | 447 kts | 258° |
| 2026-04-20 03:33 | -34.51501 | 143.75664 | 34286 ft | 447 kts | 258° |
| 2026-04-20 03:34 | -34.52276 | 143.68189 | 34286 ft | 447 kts | 258° |
| 2026-04-20 03:34 | -34.53048 | 143.60760 | 34289 ft | 447 kts | 258° |
| 2026-04-20 03:35 | -34.53823 | 143.53284 | 34282 ft | 447 kts | 258° |
| 2026-04-20 03:35 | -34.54594 | 143.45790 | 34285 ft | 447 kts | 258° |
| 2026-04-20 03:36 | -34.55362 | 143.38304 | 34283 ft | 447 kts | 258° |
| 2026-04-20 03:36 | -34.56125 | 143.30813 | 34282 ft | 447 kts | 258° |
| 2026-04-20 03:37 | -34.56882 | 143.23311 | 34280 ft | 447 kts | 258° |
| 2026-04-20 03:37 | -34.57637 | 143.15818 | 34280 ft | 448 kts | 259° |
| 2026-04-20 03:38 | -34.58381 | 143.08360 | 34281 ft | 447 kts | 259° |
| 2026-04-20 03:38 | -34.59126 | 143.00857 | 34283 ft | 447 kts | 259° |
| 2026-04-20 03:39 | -34.59864 | 142.93353 | 34283 ft | 447 kts | 259° |
| 2026-04-20 03:39 | -34.60600 | 142.85858 | 34273 ft | 447 kts | 259° |
| 2026-04-20 03:40 | -34.61325 | 142.78374 | 34277 ft | 447 kts | 259° |
| 2026-04-20 03:40 | -34.62045 | 142.70922 | 34276 ft | 447 kts | 259° |
| 2026-04-20 03:41 | -34.62765 | 142.63424 | 34282 ft | 446 kts | 259° |
| 2026-04-20 03:41 | -34.63481 | 142.55937 | 34267 ft | 447 kts | 259° |
| 2026-04-20 03:42 | -34.64186 | 142.48440 | 34264 ft | 446 kts | 260° |
| 2026-04-20 03:42 | -34.64885 | 142.40955 | 34280 ft | 446 kts | 260° |
| 2026-04-20 03:43 | -34.65579 | 142.33461 | 34283 ft | 446 kts | 260° |
| 2026-04-20 03:43 | -34.66267 | 142.25969 | 34275 ft | 446 kts | 260° |
| 2026-04-20 03:44 | -34.66952 | 142.18484 | 34276 ft | 446 kts | 260° |
| 2026-04-20 03:44 | -34.67630 | 142.10997 | 34279 ft | 445 kts | 260° |
| 2026-04-20 03:45 | -34.68310 | 142.03508 | 34279 ft | 445 kts | 260° |
| 2026-04-20 03:45 | -34.68973 | 141.96084 | 34271 ft | 445 kts | 261° |
| 2026-04-20 03:46 | -34.69638 | 141.88598 | 34269 ft | 445 kts | 261° |
| 2026-04-20 03:46 | -34.70297 | 141.81119 | 34273 ft | 445 kts | 261° |
| 2026-04-20 03:47 | -34.70954 | 141.73637 | 34275 ft | 444 kts | 261° |
| 2026-04-20 03:47 | -34.71602 | 141.66167 | 34280 ft | 444 kts | 261° |
| 2026-04-20 03:48 | -34.72246 | 141.58703 | 34279 ft | 444 kts | 261° |
| 2026-04-20 03:48 | -34.72890 | 141.51235 | 34272 ft | 444 kts | 261° |
| 2026-04-20 03:49 | -34.73522 | 141.43835 | 34272 ft | 443 kts | 261° |
| 2026-04-20 03:49 | -34.74159 | 141.36368 | 34280 ft | 443 kts | 261° |
| 2026-04-20 03:50 | -34.74793 | 141.28922 | 34281 ft | 443 kts | 261° |
| 2026-04-20 03:50 | -34.75419 | 141.21470 | 34280 ft | 443 kts | 261° |
| 2026-04-20 03:51 | -34.76039 | 141.14019 | 34279 ft | 442 kts | 262° |
| 2026-04-20 03:51 | -34.76651 | 141.06572 | 34282 ft | 442 kts | 262° |
| 2026-04-20 03:52 | -34.77247 | 140.99179 | 34281 ft | 442 kts | 262° |
| 2026-04-20 03:52 | -34.77856 | 140.91736 | 34283 ft | 442 kts | 262° |
| 2026-04-20 03:53 | -34.78454 | 140.84306 | 34290 ft | 441 kts | 262° |
| 2026-04-20 03:53 | -34.79040 | 140.76864 | 34285 ft | 441 kts | 262° |
| 2026-04-20 03:54 | -34.79627 | 140.69429 | 34293 ft | 441 kts | 262° |
| 2026-04-20 03:54 | -34.80192 | 140.62049 | 34291 ft | 440 kts | 262° |
| 2026-04-20 03:55 | -34.80764 | 140.54629 | 34290 ft | 440 kts | 262° |
| 2026-04-20 03:55 | -34.81257 | 140.48415 | 34293 ft | 440 kts | 262° |
| 2026-04-20 03:56 | -34.81828 | 140.41004 | 34292 ft | 440 kts | 263° |
| 2026-04-20 03:56 | -34.82495 | 140.32396 | 34290 ft | 439 kts | 262° |
| 2026-04-20 03:57 | -34.82976 | 140.26240 | 34293 ft | 439 kts | 263° |
| 2026-04-20 03:57 | -34.83529 | 140.18830 | 34293 ft | 439 kts | 263° |
| 2026-04-20 03:58 | -34.84065 | 140.11408 | 34289 ft | 439 kts | 263° |
| 2026-04-20 03:58 | -34.84576 | 140.04041 | 34289 ft | 439 kts | 263° |
| 2026-04-20 03:59 | -34.85106 | 139.96626 | 34292 ft | 439 kts | 263° |
| 2026-04-20 03:59 | -34.85644 | 139.89221 | 34290 ft | 438 kts | 263° |
| 2026-04-20 04:00 | -34.86179 | 139.81834 | 34294 ft | 438 kts | 263° |
| 2026-04-20 04:00 | -34.86703 | 139.74449 | 34284 ft | 438 kts | 263° |
| 2026-04-20 04:01 | -34.87223 | 139.67111 | 34286 ft | 438 kts | 263° |
| 2026-04-20 04:01 | -34.87741 | 139.59721 | 34291 ft | 437 kts | 264° |
| 2026-04-20 04:02 | -34.88245 | 139.52344 | 34291 ft | 437 kts | 264° |
| 2026-04-20 04:02 | -34.88752 | 139.44975 | 34295 ft | 436 kts | 264° |
| 2026-04-20 04:03 | -34.89248 | 139.37618 | 34295 ft | 436 kts | 264° |
| 2026-04-20 04:03 | -34.89747 | 139.30250 | 34295 ft | 436 kts | 264° |
| 2026-04-20 04:04 | -34.90241 | 139.22922 | 34294 ft | 435 kts | 264° |
| 2026-04-20 04:04 | -34.90732 | 139.15574 | 34295 ft | 435 kts | 264° |
| 2026-04-20 04:05 | -34.91210 | 139.08223 | 34295 ft | 435 kts | 264° |
| 2026-04-20 04:05 | -34.91680 | 139.00873 | 34296 ft | 434 kts | 264° |
| 2026-04-20 04:06 | -34.92155 | 138.93535 | 34292 ft | 434 kts | 264° |
| 2026-04-20 04:06 | -34.92619 | 138.86240 | 34287 ft | 434 kts | 264° |
| 2026-04-20 04:07 | -34.93093 | 138.78891 | 34286 ft | 434 kts | 264° |
| 2026-04-20 04:07 | -34.93546 | 138.71597 | 34289 ft | 434 kts | 264° |
| 2026-04-20 04:08 | -34.94013 | 138.64250 | 34288 ft | 434 kts | 264° |
| 2026-04-20 04:08 | -34.94477 | 138.56919 | 34289 ft | 434 kts | 265° |
| 2026-04-20 04:09 | -34.94986 | 138.49595 | 34288 ft | 433 kts | 263° |
| 2026-04-20 04:09 | -34.95588 | 138.42275 | 34289 ft | 433 kts | 263° |
| 2026-04-20 04:10 | -34.96186 | 138.34970 | 34290 ft | 433 kts | 263° |
| 2026-04-20 04:10 | -34.96773 | 138.27703 | 34291 ft | 433 kts | 263° |
| 2026-04-20 04:11 | -34.97357 | 138.20395 | 34289 ft | 433 kts | 264° |
| 2026-04-20 04:11 | -34.97947 | 138.13076 | 34295 ft | 433 kts | 264° |
| 2026-04-20 04:12 | -34.98524 | 138.05764 | 34296 ft | 433 kts | 264° |
| 2026-04-20 04:12 | -34.99099 | 137.98460 | 34293 ft | 433 kts | 264° |
| 2026-04-20 04:13 | -34.99664 | 137.91150 | 34300 ft | 433 kts | 264° |
| 2026-04-20 04:13 | -35.00233 | 137.83838 | 34297 ft | 433 kts | 264° |
| 2026-04-20 04:14 | -35.00790 | 137.76580 | 34295 ft | 432 kts | 264° |
| 2026-04-20 04:14 | -35.01350 | 137.69273 | 34299 ft | 432 kts | 264° |
| 2026-04-20 04:15 | -35.01894 | 137.61965 | 34298 ft | 432 kts | 264° |
| 2026-04-20 04:15 | -35.02449 | 137.54654 | 34301 ft | 432 kts | 264° |
| 2026-04-20 04:16 | -35.02985 | 137.47394 | 34294 ft | 432 kts | 264° |
| 2026-04-20 04:16 | -35.03510 | 137.40091 | 34297 ft | 432 kts | 264° |
| 2026-04-20 04:17 | -35.04052 | 137.32779 | 34296 ft | 432 kts | 264° |
| 2026-04-20 04:17 | -35.04591 | 137.25477 | 34297 ft | 432 kts | 264° |
| 2026-04-20 04:18 | -35.05113 | 137.18177 | 34296 ft | 431 kts | 264° |
| 2026-04-20 04:18 | -35.05624 | 137.10917 | 34293 ft | 431 kts | 264° |
| 2026-04-20 04:19 | -35.06139 | 137.03621 | 34297 ft | 431 kts | 264° |
| 2026-04-20 04:19 | -35.06653 | 136.96320 | 34301 ft | 434 kts | 264° |
| 2026-04-20 04:20 | -35.07174 | 136.88885 | 34306 ft | 442 kts | 264° |
| 2026-04-20 04:20 | -35.07682 | 136.81389 | 34295 ft | 442 kts | 265° |
| 2026-04-20 04:21 | -35.08185 | 136.73947 | 34290 ft | 442 kts | 265° |
| 2026-04-20 04:21 | -35.08696 | 136.66457 | 34301 ft | 442 kts | 264° |
| 2026-04-20 04:22 | -35.09186 | 136.58965 | 34296 ft | 442 kts | 265° |
| 2026-04-20 04:22 | -35.09674 | 136.51475 | 34302 ft | 442 kts | 265° |
| 2026-04-20 04:23 | -35.10160 | 136.43981 | 34302 ft | 442 kts | 265° |
| 2026-04-20 04:23 | -35.10644 | 136.36484 | 34305 ft | 442 kts | 265° |
| 2026-04-20 04:24 | -35.11126 | 136.29049 | 34300 ft | 442 kts | 265° |
| 2026-04-20 04:24 | -35.11610 | 136.21543 | 34300 ft | 442 kts | 265° |
| 2026-04-20 04:25 | -35.12079 | 136.14050 | 34294 ft | 442 kts | 265° |
| 2026-04-20 04:25 | -35.12550 | 136.06581 | 34298 ft | 442 kts | 265° |
| 2026-04-20 04:26 | -35.13013 | 135.99082 | 34294 ft | 442 kts | 265° |
| 2026-04-20 04:26 | -35.13470 | 135.91564 | 34303 ft | 442 kts | 265° |
| 2026-04-20 04:27 | -35.13925 | 135.84114 | 34299 ft | 442 kts | 265° |
| 2026-04-20 04:27 | -35.14371 | 135.76604 | 34300 ft | 442 kts | 265° |
| 2026-04-20 04:28 | -35.14815 | 135.69100 | 34294 ft | 442 kts | 265° |
| 2026-04-20 04:28 | -35.15258 | 135.61636 | 34299 ft | 442 kts | 265° |
| 2026-04-20 04:29 | -35.15692 | 135.54135 | 34296 ft | 442 kts | 265° |
| 2026-04-20 04:29 | -35.16128 | 135.46615 | 34293 ft | 442 kts | 265° |
| 2026-04-20 04:30 | -35.16551 | 135.39165 | 34296 ft | 442 kts | 265° |
| 2026-04-20 04:30 | -35.16975 | 135.31658 | 34296 ft | 442 kts | 265° |
| 2026-04-20 04:31 | -35.17398 | 135.24158 | 34294 ft | 442 kts | 265° |
| 2026-04-20 04:31 | -35.17806 | 135.16702 | 34292 ft | 442 kts | 265° |
| 2026-04-20 04:32 | -35.18220 | 135.09204 | 34293 ft | 441 kts | 265° |
| 2026-04-20 04:32 | -35.18625 | 135.01708 | 34294 ft | 441 kts | 265° |
| 2026-04-20 04:33 | -35.18673 | 134.97957 | 34170 ft | 440 kts | 273° |
| 2026-04-20 04:33 | -35.18589 | 134.94235 | 34229 ft | 437 kts | 274° |
| 2026-04-20 04:33 | -35.18406 | 134.86810 | 34286 ft | 436 kts | 274° |
| 2026-04-20 04:34 | -35.18216 | 134.79397 | 34012 ft | 436 kts | 274° |
| 2026-04-20 04:34 | -35.18122 | 134.75684 | 33755 ft | 437 kts | 274° |
| 2026-04-20 04:34 | -35.18028 | 134.72004 | 33507 ft | 438 kts | 274° |
| 2026-04-20 04:35 | -35.17929 | 134.68281 | 33252 ft | 438 kts | 274° |
| 2026-04-20 04:35 | -35.17827 | 134.64550 | 32983 ft | 439 kts | 274° |
| 2026-04-20 04:35 | -35.17727 | 134.60806 | 32724 ft | 440 kts | 274° |
| 2026-04-20 04:35 | -35.17626 | 134.57061 | 32471 ft | 441 kts | 274° |
| 2026-04-20 04:36 | -35.17417 | 134.49532 | 32260 ft | 443 kts | 274° |
| 2026-04-20 04:36 | -35.17310 | 134.45769 | 32271 ft | 444 kts | 274° |
| 2026-04-20 04:37 | -35.17093 | 134.38243 | 32290 ft | 444 kts | 274° |
| 2026-04-20 04:37 | -35.16877 | 134.30700 | 32293 ft | 443 kts | 274° |
| 2026-04-20 04:38 | -35.16650 | 134.23218 | 32288 ft | 443 kts | 274° |
| 2026-04-20 04:38 | -35.16415 | 134.15682 | 32296 ft | 443 kts | 274° |
| 2026-04-20 04:39 | -35.16181 | 134.08159 | 32293 ft | 443 kts | 274° |
| 2026-04-20 04:39 | -35.15941 | 134.00632 | 32292 ft | 443 kts | 274° |
| 2026-04-20 04:40 | -35.15695 | 133.93153 | 32291 ft | 442 kts | 274° |
| 2026-04-20 04:40 | -35.15450 | 133.85639 | 32293 ft | 442 kts | 274° |
| 2026-04-20 04:41 | -35.15195 | 133.78132 | 32289 ft | 442 kts | 274° |
| 2026-04-20 04:41 | -35.14941 | 133.70622 | 32289 ft | 442 kts | 274° |
| 2026-04-20 04:42 | -35.14685 | 133.63157 | 32286 ft | 441 kts | 274° |
| 2026-04-20 04:42 | -35.14463 | 133.56911 | 32288 ft | 441 kts | 274° |
| 2026-04-20 04:43 | -35.14195 | 133.49419 | 32288 ft | 441 kts | 274° |
| 2026-04-20 04:43 | -35.13924 | 133.41941 | 32287 ft | 440 kts | 274° |
| 2026-04-20 04:44 | -35.13645 | 133.34458 | 32282 ft | 440 kts | 274° |
| 2026-04-20 04:44 | -35.13319 | 133.25780 | 32286 ft | 440 kts | 274° |
| 2026-04-20 04:45 | -35.13082 | 133.19569 | 32288 ft | 440 kts | 274° |
| 2026-04-20 04:45 | -35.12792 | 133.12105 | 32286 ft | 440 kts | 274° |
| 2026-04-20 04:46 | -35.12497 | 133.04640 | 32285 ft | 439 kts | 275° |
| 2026-04-20 04:46 | -35.12199 | 132.97211 | 32290 ft | 439 kts | 275° |
| 2026-04-20 04:47 | -35.11898 | 132.89762 | 32287 ft | 439 kts | 275° |
| 2026-04-20 04:47 | -35.11589 | 132.82302 | 32285 ft | 439 kts | 275° |
| 2026-04-20 04:48 | -35.11274 | 132.74856 | 32282 ft | 439 kts | 275° |
| 2026-04-20 04:48 | -35.10959 | 132.67397 | 32278 ft | 439 kts | 275° |
| 2026-04-20 04:49 | -35.10639 | 132.59991 | 32280 ft | 439 kts | 275° |
| 2026-04-20 04:49 | -35.10314 | 132.52540 | 32282 ft | 439 kts | 275° |
| 2026-04-20 04:50 | -35.09982 | 132.45079 | 32277 ft | 439 kts | 275° |
| 2026-04-20 04:50 | -35.09648 | 132.37634 | 32279 ft | 439 kts | 275° |
| 2026-04-20 04:51 | -35.09310 | 132.30187 | 32277 ft | 439 kts | 275° |
| 2026-04-20 04:51 | -35.08966 | 132.22785 | 32275 ft | 439 kts | 275° |
| 2026-04-20 04:52 | -35.08618 | 132.15331 | 32274 ft | 438 kts | 275° |
| 2026-04-20 04:52 | -35.08267 | 132.07943 | 32276 ft | 438 kts | 275° |
| 2026-04-20 04:53 | -35.07910 | 132.00509 | 32276 ft | 438 kts | 275° |
| 2026-04-20 04:53 | -35.07547 | 131.93073 | 32273 ft | 438 kts | 275° |
| 2026-04-20 04:54 | -35.07182 | 131.85651 | 32273 ft | 437 kts | 275° |
| 2026-04-20 04:54 | -35.06814 | 131.78281 | 32271 ft | 437 kts | 275° |
| 2026-04-20 04:55 | -35.06437 | 131.70864 | 32269 ft | 437 kts | 275° |
| 2026-04-20 04:55 | -35.06055 | 131.63455 | 32269 ft | 437 kts | 275° |
| 2026-04-20 04:56 | -35.05678 | 131.56084 | 32268 ft | 436 kts | 275° |
| 2026-04-20 04:56 | -35.05232 | 131.48687 | 32263 ft | 436 kts | 278° |
| 2026-04-20 04:57 | -35.04489 | 131.41350 | 32262 ft | 435 kts | 278° |
| 2026-04-20 04:57 | -35.03742 | 131.34056 | 32263 ft | 435 kts | 278° |
| 2026-04-20 04:58 | -35.02989 | 131.26725 | 32263 ft | 435 kts | 278° |
| 2026-04-20 04:58 | -35.02238 | 131.19389 | 32260 ft | 435 kts | 278° |
| 2026-04-20 04:59 | -35.01490 | 131.12112 | 32257 ft | 434 kts | 278° |
| 2026-04-20 04:59 | -35.00730 | 131.04794 | 32257 ft | 434 kts | 278° |
| 2026-04-20 05:00 | -34.99963 | 130.97478 | 32258 ft | 434 kts | 278° |
| 2026-04-20 05:00 | -34.99197 | 130.90219 | 32257 ft | 433 kts | 278° |
| 2026-04-20 05:01 | -34.98431 | 130.82927 | 32252 ft | 433 kts | 278° |
| 2026-04-20 05:01 | -34.97661 | 130.75636 | 32255 ft | 433 kts | 278° |
| 2026-04-20 05:02 | -34.96880 | 130.68412 | 32250 ft | 432 kts | 278° |
| 2026-04-20 05:02 | -34.96093 | 130.61126 | 32247 ft | 432 kts | 278° |
| 2026-04-20 05:03 | -34.95311 | 130.53902 | 32243 ft | 431 kts | 278° |
| 2026-04-20 05:03 | -34.94522 | 130.46628 | 32240 ft | 431 kts | 278° |
| 2026-04-20 05:04 | -34.93730 | 130.39412 | 32241 ft | 430 kts | 278° |
| 2026-04-20 05:04 | -34.92933 | 130.32174 | 32233 ft | 429 kts | 278° |
| 2026-04-20 05:05 | -34.92134 | 130.24961 | 32234 ft | 429 kts | 278° |
| 2026-04-20 05:05 | -34.91338 | 130.17807 | 32233 ft | 429 kts | 278° |
| 2026-04-20 05:06 | -34.90534 | 130.10596 | 32226 ft | 428 kts | 278° |
| 2026-04-20 05:06 | -34.89724 | 130.03419 | 32228 ft | 428 kts | 278° |
| 2026-04-20 05:07 | -34.88913 | 129.96223 | 32225 ft | 428 kts | 278° |
| 2026-04-20 05:07 | -34.88101 | 129.89089 | 32214 ft | 427 kts | 278° |
| 2026-04-20 05:08 | -34.87281 | 129.81912 | 32213 ft | 427 kts | 278° |
| 2026-04-20 05:08 | -34.86460 | 129.74788 | 32215 ft | 426 kts | 278° |
| 2026-04-20 05:09 | -34.85632 | 129.67621 | 32209 ft | 426 kts | 278° |
| 2026-04-20 05:09 | -34.84805 | 129.60485 | 32205 ft | 425 kts | 278° |
| 2026-04-20 05:10 | -34.83978 | 129.53403 | 32206 ft | 425 kts | 278° |
| 2026-04-20 05:10 | -34.83142 | 129.46285 | 32201 ft | 425 kts | 278° |
| 2026-04-20 05:11 | -34.82301 | 129.39158 | 32197 ft | 424 kts | 278° |
| 2026-04-20 05:11 | -34.81455 | 129.32038 | 32193 ft | 424 kts | 279° |
| 2026-04-20 05:12 | -34.80612 | 129.24982 | 32189 ft | 424 kts | 279° |
| 2026-04-20 05:12 | -34.79761 | 129.17872 | 32188 ft | 424 kts | 279° |
| 2026-04-20 05:13 | -34.78910 | 129.10770 | 32187 ft | 423 kts | 279° |
| 2026-04-20 05:13 | -34.78051 | 129.03679 | 32188 ft | 423 kts | 279° |
| 2026-04-20 05:14 | -34.77192 | 128.96627 | 32185 ft | 423 kts | 279° |
| 2026-04-20 05:14 | -34.76325 | 128.89529 | 32186 ft | 423 kts | 279° |
| 2026-04-20 05:15 | -34.75462 | 128.82491 | 32185 ft | 422 kts | 279° |
| 2026-04-20 05:15 | -34.74593 | 128.75418 | 32188 ft | 422 kts | 279° |
| 2026-04-20 05:16 | -34.73722 | 128.68362 | 32186 ft | 422 kts | 279° |
| 2026-04-20 05:16 | -34.72845 | 128.61353 | 32180 ft | 421 kts | 279° |
| 2026-04-20 05:17 | -34.71967 | 128.54302 | 32181 ft | 421 kts | 279° |
| 2026-04-20 05:17 | -34.71086 | 128.47247 | 32181 ft | 421 kts | 279° |
| 2026-04-20 05:18 | -34.70203 | 128.40259 | 32181 ft | 421 kts | 279° |
| 2026-04-20 05:18 | -34.69310 | 128.33222 | 32177 ft | 420 kts | 279° |
| 2026-04-20 05:19 | -34.68419 | 128.26196 | 32174 ft | 420 kts | 279° |
| 2026-04-20 05:19 | -34.67524 | 128.19217 | 32171 ft | 420 kts | 279° |
| 2026-04-20 05:20 | -34.66617 | 128.12217 | 32165 ft | 420 kts | 279° |
| 2026-04-20 05:20 | -34.65706 | 128.05203 | 32162 ft | 419 kts | 279° |
| 2026-04-20 05:21 | -34.64796 | 127.98194 | 32164 ft | 419 kts | 279° |
| 2026-04-20 05:21 | -34.63891 | 127.91236 | 32163 ft | 419 kts | 279° |
| 2026-04-20 05:22 | -34.62980 | 127.84252 | 32155 ft | 419 kts | 279° |
| 2026-04-20 05:22 | -34.62058 | 127.77258 | 32149 ft | 418 kts | 279° |
| 2026-04-20 05:23 | -34.61136 | 127.70290 | 32149 ft | 418 kts | 279° |
| 2026-04-20 05:23 | -34.60214 | 127.63361 | 32145 ft | 418 kts | 279° |
| 2026-04-20 05:24 | -34.59284 | 127.56396 | 32142 ft | 417 kts | 279° |
| 2026-04-20 05:24 | -34.58348 | 127.49438 | 32139 ft | 417 kts | 279° |
| 2026-04-20 05:25 | -34.57412 | 127.42529 | 32140 ft | 417 kts | 279° |
| 2026-04-20 05:25 | -34.56472 | 127.35584 | 32135 ft | 416 kts | 280° |
| 2026-04-20 05:26 | -34.55531 | 127.28651 | 32140 ft | 416 kts | 280° |
| 2026-04-20 05:26 | -34.54586 | 127.21710 | 32130 ft | 416 kts | 280° |
| 2026-04-20 05:27 | -34.53648 | 127.14841 | 32124 ft | 415 kts | 280° |
| 2026-04-20 05:27 | -34.52695 | 127.07937 | 32130 ft | 415 kts | 280° |
| 2026-04-20 05:28 | -34.51744 | 127.01036 | 32118 ft | 414 kts | 280° |
| 2026-04-20 05:28 | -34.50787 | 126.94138 | 32112 ft | 414 kts | 280° |
| 2026-04-20 05:29 | -34.49826 | 126.87247 | 32115 ft | 413 kts | 280° |
| 2026-04-20 05:29 | -34.48872 | 126.80417 | 32108 ft | 413 kts | 280° |
| 2026-04-20 05:30 | -34.47905 | 126.73543 | 32102 ft | 413 kts | 280° |
| 2026-04-20 05:30 | -34.47100 | 126.67841 | 32099 ft | 413 kts | 280° |
| 2026-04-20 05:31 | -34.45971 | 126.59856 | 32095 ft | 412 kts | 280° |
| 2026-04-20 05:31 | -34.45162 | 126.54161 | 32094 ft | 412 kts | 280° |
| 2026-04-20 05:32 | -34.44183 | 126.47308 | 32087 ft | 412 kts | 281° |
| 2026-04-20 05:32 | -34.43201 | 126.40460 | 32080 ft | 411 kts | 281° |
| 2026-04-20 05:33 | -34.42230 | 126.33669 | 32072 ft | 411 kts | 281° |
| 2026-04-20 05:33 | -34.41252 | 126.26843 | 32073 ft | 411 kts | 281° |
| 2026-04-20 05:34 | -34.40267 | 126.20024 | 32067 ft | 410 kts | 281° |
| 2026-04-20 05:34 | -34.38773 | 126.09849 | 32060 ft | 410 kts | 281° |
| 2026-04-20 05:35 | -34.37777 | 126.03035 | 32051 ft | 410 kts | 281° |
| 2026-04-20 05:35 | -34.36777 | 125.96241 | 32045 ft | 410 kts | 281° |
| 2026-04-20 05:36 | -34.35772 | 125.89447 | 32042 ft | 409 kts | 281° |
| 2026-04-20 05:36 | -34.34775 | 125.82703 | 32039 ft | 409 kts | 281° |
| 2026-04-20 05:37 | -34.33763 | 125.75902 | 32036 ft | 409 kts | 281° |
| 2026-04-20 05:37 | -34.32750 | 125.69117 | 32029 ft | 409 kts | 281° |
| 2026-04-20 05:38 | -34.31746 | 125.62379 | 32026 ft | 409 kts | 281° |
| 2026-04-20 05:38 | -34.30723 | 125.55603 | 32020 ft | 409 kts | 281° |
| 2026-04-20 05:39 | -34.29702 | 125.48833 | 32020 ft | 409 kts | 281° |
| 2026-04-20 05:39 | -34.28681 | 125.42106 | 32013 ft | 408 kts | 281° |
| 2026-04-20 05:40 | -34.27654 | 125.35337 | 32010 ft | 408 kts | 281° |
| 2026-04-20 05:40 | -34.26619 | 125.28589 | 31998 ft | 408 kts | 282° |
| 2026-04-20 05:41 | -34.25586 | 125.21874 | 31994 ft | 408 kts | 281° |
| 2026-04-20 05:41 | -34.24549 | 125.15132 | 31993 ft | 408 kts | 282° |
| 2026-04-20 05:42 | -34.23505 | 125.08389 | 31985 ft | 408 kts | 282° |
| 2026-04-20 05:42 | -34.22462 | 125.01678 | 31984 ft | 408 kts | 282° |
| 2026-04-20 05:43 | -34.21409 | 124.94933 | 31974 ft | 407 kts | 282° |
| 2026-04-20 05:43 | -34.20352 | 124.88246 | 31969 ft | 408 kts | 282° |
| 2026-04-20 05:44 | -34.19287 | 124.81519 | 31966 ft | 407 kts | 282° |
| 2026-04-20 05:44 | -34.18224 | 124.74781 | 31957 ft | 407 kts | 282° |
| 2026-04-20 05:45 | -34.17154 | 124.68056 | 31955 ft | 407 kts | 282° |
| 2026-04-20 05:45 | -34.16089 | 124.61371 | 31947 ft | 407 kts | 282° |
| 2026-04-20 05:46 | -34.15007 | 124.54659 | 31944 ft | 407 kts | 282° |
| 2026-04-20 05:46 | -34.13922 | 124.47952 | 31939 ft | 407 kts | 282° |
| 2026-04-20 05:47 | -34.12839 | 124.41248 | 31939 ft | 407 kts | 282° |
| 2026-04-20 05:47 | -34.11751 | 124.34531 | 31928 ft | 407 kts | 282° |
| 2026-04-20 05:48 | -34.10665 | 124.27842 | 31924 ft | 406 kts | 282° |
| 2026-04-20 05:48 | -34.09580 | 124.21187 | 31923 ft | 406 kts | 282° |
| 2026-04-20 05:49 | -34.08487 | 124.14513 | 31915 ft | 405 kts | 283° |
| 2026-04-20 05:49 | -34.07392 | 124.07839 | 31915 ft | 405 kts | 283° |
| 2026-04-20 05:50 | -34.06297 | 124.01186 | 31910 ft | 405 kts | 283° |
| 2026-04-20 05:50 | -34.05194 | 123.94519 | 31906 ft | 404 kts | 283° |
| 2026-04-20 05:51 | -34.04097 | 123.87918 | 31905 ft | 404 kts | 283° |
| 2026-04-20 05:51 | -34.02992 | 123.81277 | 31901 ft | 404 kts | 283° |
| 2026-04-20 05:52 | -34.01886 | 123.74615 | 31898 ft | 404 kts | 283° |
| 2026-04-20 05:52 | -34.00778 | 123.68011 | 31895 ft | 404 kts | 283° |
| 2026-04-20 05:53 | -33.99662 | 123.61372 | 31894 ft | 404 kts | 283° |
| 2026-04-20 05:53 | -33.98548 | 123.54727 | 31883 ft | 404 kts | 283° |
| 2026-04-20 05:54 | -33.97414 | 123.48088 | 31881 ft | 404 kts | 283° |
| 2026-04-20 05:54 | -33.96289 | 123.41448 | 31869 ft | 405 kts | 283° |
| 2026-04-20 05:55 | -33.95160 | 123.34807 | 31865 ft | 404 kts | 283° |
| 2026-04-20 05:55 | -33.94024 | 123.28165 | 31860 ft | 404 kts | 283° |
| 2026-04-20 05:56 | -33.92895 | 123.21566 | 31853 ft | 404 kts | 283° |
| 2026-04-20 05:56 | -33.91750 | 123.14932 | 31855 ft | 404 kts | 284° |
| 2026-04-20 05:57 | -33.90604 | 123.08287 | 31846 ft | 404 kts | 284° |
| 2026-04-20 05:57 | -33.89455 | 123.01654 | 31835 ft | 404 kts | 284° |
| 2026-04-20 05:58 | -33.88300 | 122.95043 | 31838 ft | 404 kts | 284° |
| 2026-04-20 05:58 | -33.87142 | 122.88411 | 31825 ft | 405 kts | 284° |
| 2026-04-20 05:59 | -33.85987 | 122.81815 | 31828 ft | 404 kts | 284° |
| 2026-04-20 05:59 | -33.84816 | 122.75181 | 31820 ft | 404 kts | 284° |
| 2026-04-20 06:00 | -33.83642 | 122.68551 | 31816 ft | 404 kts | 284° |
| 2026-04-20 06:00 | -33.82480 | 122.61968 | 31815 ft | 404 kts | 284° |
| 2026-04-20 06:01 | -33.81299 | 122.55341 | 31807 ft | 405 kts | 284° |
| 2026-04-20 06:01 | -33.80114 | 122.48758 | 31802 ft | 404 kts | 284° |
| 2026-04-20 06:02 | -33.78930 | 122.42139 | 31801 ft | 404 kts | 284° |
| 2026-04-20 06:02 | -33.77743 | 122.35519 | 31798 ft | 404 kts | 284° |
| 2026-04-20 06:03 | -33.76559 | 122.28941 | 31795 ft | 404 kts | 284° |
| 2026-04-20 06:03 | -33.75366 | 122.22335 | 31788 ft | 404 kts | 284° |
| 2026-04-20 06:04 | -33.74172 | 122.15736 | 31786 ft | 403 kts | 284° |
| 2026-04-20 06:04 | -33.72984 | 122.09195 | 31786 ft | 403 kts | 284° |
| 2026-04-20 06:05 | -33.71785 | 122.02617 | 31788 ft | 403 kts | 284° |
| 2026-04-20 06:05 | -33.70589 | 121.96022 | 31782 ft | 403 kts | 284° |
| 2026-04-20 06:06 | -33.69392 | 121.89447 | 31776 ft | 403 kts | 285° |
| 2026-04-20 06:06 | -33.68152 | 121.82885 | 31774 ft | 402 kts | 287° |
| 2026-04-20 06:07 | -33.66368 | 121.76535 | 31774 ft | 401 kts | 291° |
| 2026-04-20 06:07 | -33.64500 | 121.70264 | 31770 ft | 401 kts | 291° |
| 2026-04-20 06:08 | -33.62623 | 121.63943 | 31767 ft | 401 kts | 291° |
| 2026-04-20 06:08 | -33.60750 | 121.57633 | 31767 ft | 401 kts | 291° |
| 2026-04-20 06:09 | -33.58871 | 121.51322 | 31762 ft | 401 kts | 291° |
| 2026-04-20 06:09 | -33.57001 | 121.45039 | 31764 ft | 402 kts | 291° |
| 2026-04-20 06:10 | -33.55111 | 121.38715 | 31763 ft | 402 kts | 291° |
| 2026-04-20 06:10 | -33.53234 | 121.32449 | 31757 ft | 402 kts | 291° |
| 2026-04-20 06:11 | -33.51342 | 121.26135 | 31760 ft | 402 kts | 291° |
| 2026-04-20 06:11 | -33.49447 | 121.19834 | 31760 ft | 402 kts | 291° |
| 2026-04-20 06:12 | -33.47549 | 121.13538 | 31758 ft | 402 kts | 291° |
| 2026-04-20 06:12 | -33.45657 | 121.07278 | 31760 ft | 402 kts | 291° |
| 2026-04-20 06:13 | -33.43753 | 121.00987 | 31758 ft | 401 kts | 291° |
| 2026-04-20 06:13 | -33.41848 | 120.94690 | 31756 ft | 401 kts | 291° |
| 2026-04-20 06:14 | -33.39951 | 120.88447 | 31755 ft | 401 kts | 291° |
| 2026-04-20 06:14 | -33.38042 | 120.82177 | 31756 ft | 401 kts | 291° |
| 2026-04-20 06:15 | -33.36135 | 120.75902 | 31753 ft | 401 kts | 291° |
| 2026-04-20 06:15 | -33.34233 | 120.69677 | 31755 ft | 401 kts | 291° |
| 2026-04-20 06:16 | -33.32308 | 120.63399 | 31755 ft | 401 kts | 291° |
| 2026-04-20 06:16 | -33.30387 | 120.57140 | 31753 ft | 401 kts | 291° |
| 2026-04-20 06:17 | -33.28471 | 120.50920 | 31753 ft | 401 kts | 291° |
| 2026-04-20 06:17 | -33.26543 | 120.44660 | 31752 ft | 400 kts | 291° |
| 2026-04-20 06:18 | -33.24624 | 120.38440 | 31752 ft | 400 kts | 291° |
| 2026-04-20 06:18 | -33.23018 | 120.33240 | 31752 ft | 400 kts | 291° |
| 2026-04-20 06:19 | -33.21078 | 120.26992 | 31752 ft | 400 kts | 291° |
| 2026-04-20 06:19 | -33.19152 | 120.20809 | 31755 ft | 399 kts | 291° |
| 2026-04-20 06:20 | -33.17213 | 120.14585 | 31755 ft | 399 kts | 291° |
| 2026-04-20 06:20 | -33.15272 | 120.08383 | 31756 ft | 399 kts | 291° |
| 2026-04-20 06:21 | -33.13335 | 120.02184 | 31756 ft | 399 kts | 291° |
| 2026-04-20 06:21 | -33.11388 | 119.95981 | 31761 ft | 398 kts | 291° |
| 2026-04-20 06:22 | -33.09456 | 119.89832 | 31758 ft | 398 kts | 291° |
| 2026-04-20 06:22 | -33.07513 | 119.83650 | 31755 ft | 397 kts | 292° |
| 2026-04-20 06:23 | -33.05570 | 119.77490 | 31761 ft | 397 kts | 292° |
| 2026-04-20 06:23 | -33.03629 | 119.71320 | 31759 ft | 397 kts | 291° |
| 2026-04-20 06:24 | -33.01683 | 119.65160 | 31766 ft | 397 kts | 292° |
| 2026-04-20 06:24 | -32.99728 | 119.59017 | 31762 ft | 396 kts | 292° |
| 2026-04-20 06:25 | -32.97790 | 119.52904 | 31765 ft | 396 kts | 292° |
| 2026-04-20 06:25 | -32.95839 | 119.46767 | 31764 ft | 396 kts | 292° |
| 2026-04-20 06:26 | -32.93883 | 119.40632 | 31765 ft | 396 kts | 292° |
| 2026-04-20 06:26 | -32.91937 | 119.34541 | 31769 ft | 395 kts | 292° |
| 2026-04-20 06:27 | -32.89969 | 119.28424 | 31770 ft | 395 kts | 292° |
| 2026-04-20 06:27 | -32.88004 | 119.22312 | 31762 ft | 395 kts | 292° |
| 2026-04-20 06:28 | -32.86040 | 119.16204 | 31769 ft | 395 kts | 292° |
| 2026-04-20 06:28 | -32.84088 | 119.10147 | 31766 ft | 394 kts | 292° |
| 2026-04-20 06:29 | -32.82124 | 119.04053 | 31766 ft | 394 kts | 292° |
| 2026-04-20 06:29 | -32.80157 | 118.97973 | 31771 ft | 393 kts | 292° |
| 2026-04-20 06:30 | -32.78201 | 118.91936 | 31775 ft | 393 kts | 292° |
| 2026-04-20 06:30 | -32.76231 | 118.85874 | 31775 ft | 393 kts | 292° |
| 2026-04-20 06:31 | -32.74264 | 118.79824 | 31775 ft | 392 kts | 292° |
| 2026-04-20 06:31 | -32.72289 | 118.73768 | 31775 ft | 392 kts | 292° |
| 2026-04-20 06:32 | -32.70365 | 118.67878 | 31777 ft | 392 kts | 292° |
| 2026-04-20 06:32 | -32.68403 | 118.61877 | 31779 ft | 391 kts | 292° |
| 2026-04-20 06:33 | -32.66428 | 118.55852 | 31778 ft | 391 kts | 292° |
| 2026-04-20 06:33 | -32.64458 | 118.49852 | 31781 ft | 391 kts | 292° |
| 2026-04-20 06:34 | -32.62480 | 118.43838 | 31779 ft | 391 kts | 292° |
| 2026-04-20 06:35 | -32.59513 | 118.34847 | 31781 ft | 390 kts | 292° |
| 2026-04-20 06:35 | -32.57532 | 118.28853 | 31787 ft | 389 kts | 292° |
| 2026-04-20 06:36 | -32.55561 | 118.22900 | 31788 ft | 389 kts | 293° |
| 2026-04-20 06:36 | -32.53580 | 118.16929 | 31790 ft | 389 kts | 293° |
| 2026-04-20 06:37 | -32.51598 | 118.10963 | 31793 ft | 389 kts | 293° |
| 2026-04-20 06:37 | -32.49613 | 118.05007 | 31794 ft | 388 kts | 293° |
| 2026-04-20 06:38 | -32.47623 | 117.99043 | 31795 ft | 388 kts | 293° |
| 2026-04-20 06:38 | -32.45646 | 117.93131 | 31795 ft | 388 kts | 293° |
| 2026-04-20 06:39 | -32.43655 | 117.87185 | 31799 ft | 388 kts | 293° |
| 2026-04-20 06:39 | -32.41664 | 117.81251 | 31797 ft | 387 kts | 293° |
| 2026-04-20 06:40 | -32.39668 | 117.75315 | 31800 ft | 387 kts | 293° |
| 2026-04-20 06:40 | -32.37684 | 117.69419 | 31804 ft | 387 kts | 293° |
| 2026-04-20 06:41 | -32.35868 | 117.63425 | 31806 ft | 388 kts | 289° |
| 2026-04-20 06:41 | -32.34407 | 117.57311 | 31595 ft | 379 kts | 288° |
| 2026-04-20 06:41 | -32.33703 | 117.54358 | 31305 ft | 376 kts | 288° |
| 2026-04-20 06:42 | -32.32988 | 117.51376 | 30847 ft | 374 kts | 288° |
| 2026-04-20 06:42 | -32.32278 | 117.48419 | 30265 ft | 373 kts | 288° |
| 2026-04-20 06:42 | -32.31568 | 117.45471 | 29629 ft | 372 kts | 288° |
| 2026-04-20 06:42 | -32.30858 | 117.42521 | 28880 ft | 372 kts | 288° |
| 2026-04-20 06:43 | -32.30157 | 117.39613 | 28120 ft | 372 kts | 288° |
| 2026-04-20 06:43 | -32.29443 | 117.36658 | 27392 ft | 373 kts | 288° |
| 2026-04-20 06:43 | -32.28730 | 117.33709 | 26670 ft | 373 kts | 288° |
| 2026-04-20 06:43 | -32.28011 | 117.30743 | 25970 ft | 376 kts | 288° |
| 2026-04-20 06:44 | -32.27289 | 117.27763 | 25348 ft | 376 kts | 288° |
| 2026-04-20 06:44 | -32.26578 | 117.24831 | 24760 ft | 375 kts | 288° |
| 2026-04-20 06:44 | -32.25862 | 117.21877 | 24167 ft | 373 kts | 288° |
| 2026-04-20 06:44 | -32.25147 | 117.18940 | 23582 ft | 371 kts | 288° |
| 2026-04-20 06:45 | -32.24432 | 117.16007 | 22923 ft | 370 kts | 288° |
| 2026-04-20 06:45 | -32.23717 | 117.13077 | 22303 ft | 369 kts | 288° |
| 2026-04-20 06:45 | -32.23018 | 117.10212 | 21660 ft | 368 kts | 288° |
| 2026-04-20 06:45 | -32.22309 | 117.07305 | 21034 ft | 366 kts | 288° |
| 2026-04-20 06:46 | -32.21606 | 117.04424 | 20437 ft | 365 kts | 289° |
| 2026-04-20 06:46 | -32.20900 | 117.01537 | 19852 ft | 363 kts | 289° |
| 2026-04-20 06:46 | -32.20198 | 116.98677 | 19266 ft | 362 kts | 289° |
| 2026-04-20 06:46 | -32.19483 | 116.95764 | 18838 ft | 374 kts | 289° |
| 2026-04-20 06:47 | -32.18756 | 116.92804 | 18565 ft | 374 kts | 289° |
| 2026-04-20 06:47 | -32.18084 | 116.89877 | 18300 ft | 375 kts | 285° |
| 2026-04-20 06:47 | -32.17644 | 116.86858 | 17837 ft | 372 kts | 282° |
| 2026-04-20 06:47 | -32.17260 | 116.83841 | 17249 ft | 370 kts | 282° |
| 2026-04-20 06:48 | -32.16881 | 116.80832 | 16643 ft | 370 kts | 282° |
| 2026-04-20 06:48 | -32.16499 | 116.77836 | 16046 ft | 369 kts | 282° |
| 2026-04-20 06:48 | -32.16114 | 116.74846 | 15476 ft | 367 kts | 282° |
| 2026-04-20 06:48 | -32.15726 | 116.71855 | 14925 ft | 366 kts | 282° |
| 2026-04-20 06:49 | -32.15339 | 116.68890 | 14354 ft | 366 kts | 282° |
| 2026-04-20 06:49 | -32.14957 | 116.65957 | 13784 ft | 366 kts | 282° |
| 2026-04-20 06:49 | -32.14623 | 116.62967 | 13175 ft | 367 kts | 278° |
| 2026-04-20 06:49 | -32.14745 | 116.59939 | 12588 ft | 371 kts | 268° |
| 2026-04-20 06:50 | -32.15078 | 116.56910 | 12007 ft | 371 kts | 268° |
| 2026-04-20 06:50 | -32.15426 | 116.53900 | 11520 ft | 364 kts | 268° |
| 2026-04-20 06:50 | -32.15757 | 116.50995 | 11259 ft | 350 kts | 268° |
| 2026-04-20 06:50 | -32.16068 | 116.48209 | 11065 ft | 335 kts | 268° |
| 2026-04-20 06:51 | -32.16362 | 116.45533 | 10904 ft | 321 kts | 269° |
| 2026-04-20 06:51 | -32.16635 | 116.43006 | 10757 ft | 308 kts | 269° |
| 2026-04-20 06:51 | -32.16901 | 116.40547 | 10622 ft | 295 kts | 269° |
| 2026-04-20 06:51 | -32.17154 | 116.38196 | 10490 ft | 282 kts | 270° |
| 2026-04-20 06:52 | -32.17397 | 116.35944 | 10358 ft | 271 kts | 270° |
| 2026-04-20 06:52 | -32.17631 | 116.33742 | 10006 ft | 269 kts | 270° |
| 2026-04-20 06:52 | -32.17863 | 116.31548 | 9587 ft | 270 kts | 270° |
| 2026-04-20 06:52 | -32.18095 | 116.29353 | 9168 ft | 269 kts | 270° |
| 2026-04-20 06:53 | -32.18325 | 116.27189 | 8761 ft | 268 kts | 270° |
| 2026-04-20 06:53 | -32.18557 | 116.25014 | 8389 ft | 266 kts | 270° |
| 2026-04-20 06:53 | -32.18786 | 116.22864 | 8082 ft | 262 kts | 270° |
| 2026-04-20 06:53 | -32.19011 | 116.20734 | 7707 ft | 260 kts | 269° |
| 2026-04-20 06:54 | -32.19227 | 116.18692 | 7363 ft | 258 kts | 269° |
| 2026-04-20 06:54 | -32.19448 | 116.16592 | 7015 ft | 258 kts | 269° |
| 2026-04-20 06:54 | -32.19655 | 116.14483 | 6676 ft | 259 kts | 271° |
| 2026-04-20 06:54 | -32.19723 | 116.12359 | 6358 ft | 256 kts | 274° |
| 2026-04-20 06:55 | -32.19751 | 116.10259 | 6007 ft | 255 kts | 274° |
| 2026-04-20 06:55 | -32.19777 | 116.08178 | 5722 ft | 250 kts | 273° |
| 2026-04-20 06:55 | -32.19805 | 116.06157 | 5578 ft | 242 kts | 274° |
| 2026-04-20 06:55 | -32.19831 | 116.04208 | 5448 ft | 231 kts | 272° |
| 2026-04-20 06:56 | -32.19756 | 116.02361 | 5244 ft | 221 kts | 283° |
| 2026-04-20 06:56 | -32.19412 | 116.00657 | 5095 ft | 210 kts | 288° |
| 2026-04-20 06:56 | -32.19037 | 115.99036 | 4958 ft | 199 kts | 288° |
| 2026-04-20 06:56 | -32.18688 | 115.97492 | 4712 ft | 192 kts | 288° |
| 2026-04-20 06:57 | -32.18349 | 115.95959 | 4312 ft | 195 kts | 287° |
| 2026-04-20 06:57 | -32.18009 | 115.94405 | 4045 ft | 194 kts | 287° |
| 2026-04-20 06:57 | -32.17672 | 115.92861 | 4004 ft | 194 kts | 288° |
| 2026-04-20 06:57 | -32.17129 | 115.91428 | 4000 ft | 191 kts | 310° |
| 2026-04-20 06:58 | -32.16064 | 115.90502 | 3980 ft | 194 kts | 337° |
| 2026-04-20 06:58 | -32.14717 | 115.90372 | 3782 ft | 202 kts | 2° |
| 2026-04-20 06:58 | -32.13337 | 115.90786 | 3549 ft | 207 kts | 14° |
| 2026-04-20 06:58 | -32.11972 | 115.91240 | 3308 ft | 203 kts | 8° |
| 2026-04-20 06:59 | -32.10599 | 115.91657 | 3048 ft | 203 kts | 7° |
| 2026-04-20 06:59 | -32.09229 | 115.92060 | 2781 ft | 202 kts | 7° |
| 2026-04-20 06:59 | -32.07882 | 115.92456 | 2515 ft | 200 kts | 7° |
| 2026-04-20 06:59 | -32.06523 | 115.92854 | 2242 ft | 203 kts | 7° |
| 2026-04-20 07:00 | -32.05155 | 115.93254 | 1973 ft | 199 kts | 8° |
| 2026-04-20 07:00 | -32.03864 | 115.93635 | 1799 ft | 186 kts | 5° |
| 2026-04-20 07:00 | -32.02644 | 115.93991 | 1540 ft | 173 kts | 6° |
| 2026-04-20 07:00 | -32.01530 | 115.94319 | 1297 ft | 153 kts | 7° |
| 2026-04-20 07:01 | -32.00566 | 115.94601 | 1056 ft | 139 kts | 6° |
| 2026-04-20 07:01 | -31.99628 | 115.94874 | 853 ft | 138 kts | 6° |
| 2026-04-20 07:01 | -31.98693 | 115.95149 | 675 ft | 136 kts | 4° |
| 2026-04-20 07:01 | -31.97767 | 115.95417 | 511 ft | 136 kts | 5° |
| 2026-04-20 07:02 | -31.96841 | 115.95676 | 312 ft | 140 kts | 8° |
| 2026-04-20 07:02 | -31.95915 | 115.95968 | 139 ft | 135 kts | 5° |
| 2026-04-20 07:02 | -31.95046 | 115.96222 | 72 ft | 120 kts | 8° |
| 2026-04-20 07:02 | -31.94463 | 115.96376 | 68 ft | 44 kts | 14° |
| 2026-04-20 07:03 | -31.94195 | 115.96458 | 65 ft | 32 kts | 22° |
| 2026-04-20 07:03 | -31.94078 | 115.96629 | 73 ft | 17 kts | 59° |
| 2026-04-20 07:03 | -31.94011 | 115.96750 | 69 ft | 18 kts | 58° |
| 2026-04-20 07:03 | -31.94040 | 115.96848 | 70 ft | 18 kts | 175° |
| 2026-04-20 07:04 | -31.94124 | 115.96830 | 68 ft | 19 kts | 193° |
| 2026-04-20 07:04 | -31.94247 | 115.96795 | 68 ft | 18 kts | 193° |
| 2026-04-20 07:04 | -31.94342 | 115.96815 | 67 ft | 9 kts | 116° |
| 2026-04-20 07:04 | -31.94354 | 115.96869 | 68 ft | 7 kts | 102° |
| 2026-04-20 07:05 | -31.94361 | 115.96910 | 70 ft | 8 kts | 102° |
| 2026-04-20 07:05 | -31.94356 | 115.96979 | 71 ft | 9 kts | 70° |
| 2026-04-20 07:05 | -31.94335 | 115.97052 | 69 ft | 6 kts | 101° |
| 2026-04-20 07:05 | -31.94340 | 115.97075 | 71 ft | 0 kts | 104° |
| 2026-04-20 07:06 | -31.94340 | 115.97077 | 71 ft | 0 kts | 104° |